sensor_id;sensor_type;location;lat;lon;timestamp;pressure;altitude;pressure_sealevel;temperature;humidity
61740;BME280;47645;45.288;12.038;2023-07-09T00:04:44;1019.4598108452889;;;24.596875;72.14814197834541
61740;BME280;47645;45.288;12.038;2023-07-09T00:14:45;1019.3899230484136;;;24.6783203125;71.2794625794914
61740;BME280;47645;45.288;12.038;2023-07-09T00:24:49;1019.2668575929506;;;24.5611328125;71.16913910989132
61740;BME280;47645;45.288;12.038;2023-07-09T00:34:50;1019.2776944001212;;;24.48984375;71.21491583246159
61740;BME280;47645;45.288;12.038;2023-07-09T00:44:52;1019.2852006101599;;;24.311328125;71.51231830872031
61740;BME280;47645;45.288;12.038;2023-07-09T00:54:52;1019.3166022006666;;;24.2400390625;71.57227436131743
61740;BME280;47645;45.288;12.038;2023-07-09T01:04:57;1019.3156074677581;;;24.1228515625;71.70042872313138
61740;BME280;47645;45.288;12.038;2023-07-09T01:14:56;1019.3271543874471;;;23.9544921875;72.33806088659395
61740;BME280;47645;45.288;12.038;2023-07-09T01:24:59;1019.3112571463489;;;23.9443359375;71.88369546441959
61740;BME280;47645;45.288;12.038;2023-07-09T01:35:00;1019.3225923123697;;;23.8015625;72.21795589633781
61740;BME280;47645;45.288;12.038;2023-07-09T01:44:59;1019.2439888753859;;;23.699609375;72.28450840709566
61740;BME280;47645;45.288;12.038;2023-07-09T01:55:00;1019.1811162656029;;;23.4193359375;73.21537989942915
61740;BME280;47645;45.288;12.038;2023-07-09T02:05:02;1019.2010244310216;;;23.2052734375;74.7438596571073
61740;BME280;47645;45.288;12.038;2023-07-09T02:15:04;1019.2044368853789;;;22.97578125;75.30885296926328
61740;BME280;47645;45.288;12.038;2023-07-09T02:20:07;1019.3010209436702;;;23.271484375;73.71383618100988
61740;BME280;47645;45.288;12.038;2023-07-09T02:30:07;1019.353075319248;;;23.1033203125;74.33614785863463
61740;BME280;47645;45.288;12.038;2023-07-09T02:40:08;1019.3690998269324;;;23.1033203125;73.48968714103323
61740;BME280;47645;45.288;12.038;2023-07-09T02:50:09;1019.3415115281385;;;22.6138671875;76.58314162405532
61740;BME280;47645;45.288;12.038;2023-07-09T03:00:11;1019.3601864960477;;;23.1083984375;73.46755764749997
61740;BME280;47645;45.288;12.038;2023-07-09T03:10:11;1019.396661147049;;;22.93515625;73.56871196475838
61740;BME280;47645;45.288;12.038;2023-07-09T03:20:13;1019.4495040808295;;;22.970703125;73.10741511560337
61740;BME280;47645;45.288;12.038;2023-07-09T03:30:14;1019.5083923575022;;;22.833203125;75.42418602928751
61740;BME280;47645;45.288;12.038;2023-07-09T03:40:21;1019.5152307210188;;;22.7822265625;75.11741939538838
61740;BME280;47645;45.288;12.038;2023-07-09T03:50:17;1019.6099073028619;;;22.9810546875;72.39856388025211
61740;BME280;47645;45.288;12.038;2023-07-09T04:00:19;1019.5540330618101;;;23.551953125;70.06369602395019
61740;BME280;47645;45.288;12.038;2023-07-09T04:10:21;1019.5379685392227;;;24.0462890625;68.28705137359225
61740;BME280;47645;45.288;12.038;2023-07-09T04:20:22;1019.5503920161937;;;23.9443359375;68.3043280853343
61740;BME280;47645;45.288;12.038;2023-07-09T04:30:22;1019.6045904297462;;;23.862890625;69.57943661446618
61740;BME280;47645;45.288;12.038;2023-07-09T04:40:24;1019.5974990450326;;;23.8578125;69.97963319621977
61740;BME280;47645;45.288;12.038;2023-07-09T04:50:25;1019.6832967368704;;;24.0208984375;67.40764947634234
61740;BME280;47645;45.288;12.038;2023-07-09T05:00:27;1019.7717311845888;;;24.3419921875;69.94186487743707
61740;BME280;47645;45.288;12.038;2023-07-09T05:10:28;1019.8314027281104;;;24.5763671875;70.00380622860675
61740;BME280;47645;45.288;12.038;2023-07-09T05:20:30;1019.850876467608;;;24.7701171875;69.45317626017969
61740;BME280;47645;45.288;12.038;2023-07-09T05:30:32;1019.789490726884;;;24.9841796875;69.55282386994003
61740;BME280;47645;45.288;12.038;2023-07-09T05:40:33;1019.881872657781;;;25.1474609375;68.06686658159443
61740;BME280;47645;45.288;12.038;2023-07-09T05:50:35;1019.9777896664466;;;25.504296875;66.64939610419084
61740;BME280;47645;45.288;12.038;2023-07-09T06:00:38;1020.0389484180191;;;25.61640625;67.65227866764911
61740;BME280;47645;45.288;12.038;2023-07-09T06:10:37;1020.0120666985285;;;25.7744140625;68.16285147199322
61740;BME280;47645;45.288;12.038;2023-07-09T06:20:38;1020.0574772620706;;;25.6876953125;68.82052146294467
61740;BME280;47645;45.288;12.038;2023-07-09T06:30:40;1020.0765125054215;;;25.7794921875;67.32098190565108
61740;BME280;47645;45.288;12.038;2023-07-09T06:40:42;1020.1562827573767;;;26.029296875;67.42308969006615
61740;BME280;47645;45.288;12.038;2023-07-09T06:50:43;1020.1969450003531;;;26.45234375;66.03288668574983
61740;BME280;47645;45.288;12.038;2023-07-09T07:00:45;1020.2122058026664;;;26.671484375;59.74022017878066
61740;BME280;47645;45.288;12.038;2023-07-09T07:10:47;1020.204345694315;;;26.8244140625;61.095915794837076
61740;BME280;47645;45.288;12.038;2023-07-09T07:20:49;1020.1788702115166;;;27.26796875;58.04314567798373
61740;BME280;47645;45.288;12.038;2023-07-09T07:30:58;1020.1853367022248;;;27.7166015625;59.34237333140688
61740;BME280;47645;45.288;12.038;2023-07-09T07:40:51;1020.1559225135695;;;28.0173828125;56.67614084111646
61740;BME280;47645;45.288;12.038;2023-07-09T07:50:58;1020.0947021275185;;;28.3638671875;51.01209597622816
61740;BME280;47645;45.288;12.038;2023-07-09T08:00:55;1020.0727194561837;;;28.710546875;51.58502776138331
61740;BME280;47645;45.288;12.038;2023-07-09T08:11:01;1020.1102158022893;;;28.894140625;49.652429622078685
61740;BME280;47645;45.288;12.038;2023-07-09T08:20:58;1020.165630684858;;;29.184765625;53.6085720138194
61740;BME280;47645;45.288;12.038;2023-07-09T08:30:58;1020.2045806815435;;;29.602734375;51.30703817258859
61740;BME280;47645;45.288;12.038;2023-07-09T08:41:02;1020.1521016923798;;;30.1125;52.34149789536418
61740;BME280;47645;45.288;12.038;2023-07-09T08:51:07;1020.0005391488896;;;30.408203125;49.77313826818835
61740;BME280;47645;45.288;12.038;2023-07-09T09:01:05;1020.0162879724553;;;30.7650390625;47.92154496451685
61740;BME280;47645;45.288;12.038;2023-07-09T09:11:11;1019.9515805112053;;;31.315625;44.828265766724286
61740;BME280;47645;45.288;12.038;2023-07-09T09:21:14;1020.0601572466787;;;31.3767578125;46.00952120689271
61740;BME280;47645;45.288;12.038;2023-07-09T09:31:10;1020.0755533338038;;;31.7642578125;41.412442226458495
61740;BME280;47645;45.288;12.038;2023-07-09T09:41:14;1020.0587976013801;;;32.35546875;42.19552320184673
61740;BME280;47645;45.288;12.038;2023-07-09T09:51:13;1020.0933684493378;;;32.9876953125;43.676541516108806
61740;BME280;47645;45.288;12.038;2023-07-09T10:01:17;1020.1731803219207;;;33.757421875;42.420076853616614
61740;BME280;47645;45.288;12.038;2023-07-09T10:11:19;1020.137063318978;;;34.155078125;40.61521601488009
61740;BME280;47645;45.288;12.038;2023-07-09T10:21:23;1020.0818990727342;;;34.649609375;41.10495495944311
61740;BME280;47645;45.288;12.038;2023-07-09T10:31:23;1020.1027836403683;;;35.2919921875;40.592602957006996
61740;BME280;47645;45.288;12.038;2023-07-09T10:41:22;1020.0348253929002;;;35.96484375;38.479028726191416
61740;BME280;47645;45.288;12.038;2023-07-09T10:51:27;1020.0133013093337;;;36.637890625;38.192722047531305
61740;BME280;47645;45.288;12.038;2023-07-09T11:01:31;1020.1101566361291;;;36.6990234375;40.306142457744166
61740;BME280;47645;45.288;12.038;2023-07-09T11:11:33;1020.0539455517448;;;37.0814453125;40.08946253331788
61740;BME280;47645;45.288;12.038;2023-07-09T11:21:30;1020.0582452631486;;;38.0958984375;39.86795135935118
61740;BME280;47645;45.288;12.038;2023-07-09T11:31:36;1020.0231775432004;;;38.7892578125;37.29026697047763
61740;BME280;47645;45.288;12.038;2023-07-09T11:41:38;1019.9119503205105;;;39.3603515625;38.3972174971089
61740;BME280;47645;45.288;12.038;2023-07-09T11:51:41;1019.942676785668;;;40.109765625;37.314466481980396
61740;BME280;47645;45.288;12.038;2023-07-09T12:01:45;1019.8280004353254;;;40.5533203125;36.26901018572849
61740;BME280;47645;45.288;12.038;2023-07-09T12:11:44;1019.6967535026034;;;40.6654296875;32.47788116406896
61740;BME280;47645;45.288;12.038;2023-07-09T12:21:47;1019.7180528040008;;;40.8642578125;36.0474489879643
61740;BME280;47645;45.288;12.038;2023-07-09T12:31:48;1019.6185480728286;;;41.562890625;34.02355652201712
61740;BME280;47645;45.288;12.038;2023-07-09T12:41:48;1019.4545700106138;;;41.4607421875;33.615935262407845
61740;BME280;47645;45.288;12.038;2023-07-09T12:51:51;1019.4299003265758;;;41.47109375;34.610253900489155
61740;BME280;47645;45.288;12.038;2023-07-09T13:02:02;1019.3042321969532;;;41.8330078125;33.2698418460393
61740;BME280;47645;45.288;12.038;2023-07-09T13:11:55;1019.2492314789451;;;41.980859375;34.64803975492549
61740;BME280;47645;45.288;12.038;2023-07-09T13:21:57;1019.1935103918017;;;41.797265625;35.02527544216777
61740;BME280;47645;45.288;12.038;2023-07-09T13:32:00;1019.2433543962326;;;41.675;34.16575640507843
61740;BME280;47645;45.288;12.038;2023-07-09T13:42:02;1019.1409733339128;;;41.6392578125;33.51577049921804
61740;BME280;47645;45.288;12.038;2023-07-09T13:52:14;1019.1582669679882;;;41.7208984375;32.657731632308554
61740;BME280;47645;45.288;12.038;2023-07-09T14:02:18;1019.1609326078656;;;42.271484375;30.922546677149043
61740;BME280;47645;45.288;12.038;2023-07-09T14:12:12;1019.1120465638257;;;42.1185546875;33.372054266115164
61740;BME280;47645;45.288;12.038;2023-07-09T14:22:24;1019.0518264467962;;;42.3275390625;30.298392825924985
61740;BME280;47645;45.288;12.038;2023-07-09T14:32:31;1018.9790049284182;;;41.991015625;31.099329332343252
61740;BME280;47645;45.288;12.038;2023-07-09T14:42:17;1018.9526281378396;;;42.291796875;33.724313869012434
61740;BME280;47645;45.288;12.038;2023-07-09T14:52:20;1018.91860050432;;;42.2765625;35.72217638597414
61740;BME280;47645;45.288;12.038;2023-07-09T15:02:26;1018.7650564006273;;;42.546875;34.26205752104152
61740;BME280;47645;45.288;12.038;2023-07-09T15:12:26;1018.6518801853663;;;41.87890625;36.133057363583326
61740;BME280;47645;45.288;12.038;2023-07-09T15:22:30;1018.6130903129115;;;41.9298828125;36.48801199296673
61740;BME280;47645;45.288;12.038;2023-07-09T15:32:28;1018.5077984926065;;;41.86875;35.84992827472112
61740;BME280;47645;45.288;12.038;2023-07-09T15:42:31;1018.3509315243077;;;41.476171875;37.01286102493653
61740;BME280;47645;45.288;12.038;2023-07-09T15:52:33;1018.2203039105966;;;41.6138671875;34.51058674256971
61740;BME280;47645;45.288;12.038;2023-07-09T16:02:35;1018.2025355155115;;;40.81328125;35.073713727712125
61740;BME280;47645;45.288;12.038;2023-07-09T16:12:38;1018.0784171215122;;;40.5330078125;36.16140402347135
61740;BME280;47645;45.288;12.038;2023-07-09T16:22:41;1018.0803363723799;;;40.21171875;37.217096816110626
61740;BME280;47645;45.288;12.038;2023-07-09T16:32:43;1018.0478873681317;;;39.936328125;38.9785817335103
61740;BME280;47645;45.288;12.038;2023-07-09T16:42:46;1017.9897805274303;;;39.40625;41.29522136472098
61740;BME280;47645;45.288;12.038;2023-07-09T16:52:48;1018.0344760773655;;;38.8708984375;42.69649383225764
61740;BME280;47645;45.288;12.038;2023-07-09T17:02:50;1017.9979622691409;;;38.31015625;41.99267262970502
61740;BME280;47645;45.288;12.038;2023-07-09T17:12:55;1018.0253392211343;;;37.841015625;43.53838142945586
61740;BME280;47645;45.288;12.038;2023-07-09T17:22:55;1018.0162188395489;;;37.3669921875;46.03844338408031
61740;BME280;47645;45.288;12.038;2023-07-09T17:32:56;1017.940624865935;;;37.045703125;45.91141529308182
61740;BME280;47645;45.288;12.038;2023-07-09T17:42:58;1017.9600610379662;;;36.5359375;46.83479404454363
61740;BME280;47645;45.288;12.038;2023-07-09T17:53:00;1018.0186893383262;;;36.1484375;48.2078539829208
61740;BME280;47645;45.288;12.038;2023-07-09T18:03:07;1018.0961123269261;;;35.64375;49.75417886869047
61740;BME280;47645;45.288;12.038;2023-07-09T18:13:06;1018.1789743079435;;;34.95546875;50.488217670609494
61740;BME280;47645;45.288;12.038;2023-07-09T18:23:06;1018.2828285560284;;;34.3998046875;52.96386549413281
61740;BME280;47645;45.288;12.038;2023-07-09T18:33:09;1018.3422845058886;;;33.7931640625;54.7881777848107
61740;BME280;47645;45.288;12.038;2023-07-09T18:43:13;1018.3654225114951;;;33.2732421875;55.50930291568656
61740;BME280;47645;45.288;12.038;2023-07-09T18:53:14;1018.3700714409039;;;32.7939453125;57.28098211596003
61740;BME280;47645;45.288;12.038;2023-07-09T19:03:17;1018.3115642863202;;;32.2943359375;58.33187259941716
61740;BME280;47645;45.288;12.038;2023-07-09T19:13:19;1018.4157461294616;;;31.8662109375;59.845594069945804
61740;BME280;47645;45.288;12.038;2023-07-09T19:23:20;1018.553215885356;;;31.4939453125;60.187904248169346
61740;BME280;47645;45.288;12.038;2023-07-09T19:33:29;1018.6331641013287;;;31.1626953125;61.30843524868127
61740;BME280;47645;45.288;12.038;2023-07-09T19:43:26;1018.7915940639132;;;30.805859375;61.8306196566815
61740;BME280;47645;45.288;12.038;2023-07-09T19:53:27;1018.8465505895017;;;30.505078125;62.92588493273389
61740;BME280;47645;45.288;12.038;2023-07-09T20:03:29;1018.9910393468905;;;30.14296875;64.10342774001268
61740;BME280;47645;45.288;12.038;2023-07-09T20:13:32;1019.0223568926123;;;29.9595703125;64.13563007668292
61740;BME280;47645;45.288;12.038;2023-07-09T20:23:30;1019.0932688409074;;;29.50078125;65.2702678694736
61740;BME280;47645;45.288;12.038;2023-07-09T20:33:32;1019.0970291632907;;;29.52109375;65.04446918671393
61740;BME280;47645;45.288;12.038;2023-07-09T20:43:38;1019.0725093313598;;;29.3630859375;64.53639642679182
61740;BME280;47645;45.288;12.038;2023-07-09T20:53:36;1019.1395149976197;;;29.2;65.22571498842412
61740;BME280;47645;45.288;12.038;2023-07-09T21:03:39;1019.1035989722618;;;28.9501953125;65.71220474077131
61740;BME280;47645;45.288;12.038;2023-07-09T21:13:39;1019.1123660122655;;;28.8685546875;65.63786512155781
61740;BME280;47645;45.288;12.038;2023-07-09T21:23:41;1019.2767782670943;;;28.6595703125;65.64936002724917
61740;BME280;47645;45.288;12.038;2023-07-09T21:33:43;1019.2351004138409;;;28.399609375;66.40084959456358
61740;BME280;47645;45.288;12.038;2023-07-09T21:43:44;1019.3083504719322;;;28.3078125;66.49434443777439
61740;BME280;47645;45.288;12.038;2023-07-09T21:53:47;1019.3051180518586;;;28.078515625;67.27550646888801
61740;BME280;47645;45.288;12.038;2023-07-09T22:03:48;1019.2143080742791;;;28.185546875;66.44172383096185
61740;BME280;47645;45.288;12.038;2023-07-09T22:13:55;1019.2732268626662;;;27.8337890625;67.3318117336591
61740;BME280;47645;45.288;12.038;2023-07-09T22:23:53;1019.2375323931607;;;27.8134765625;67.27910282960995
61740;BME280;47645;45.288;12.038;2023-07-09T22:33:53;1019.3115061336229;;;27.6248046875;67.71365038341949
61740;BME280;47645;45.288;12.038;2023-07-09T22:43:55;1019.3792668624914;;;27.456640625;67.95256606722974
61740;BME280;47645;45.288;12.038;2023-07-09T22:53:58;1019.3499683546371;;;27.262890625;68.6048152610764
61740;BME280;47645;45.288;12.038;2023-07-09T23:03:59;1019.3003285414568;;;27.26796875;67.99311601408206
61740;BME280;47645;45.288;12.038;2023-07-09T23:14:00;1019.3503506622571;;;27.079296875;68.61191384090644
61740;BME280;47645;45.288;12.038;2023-07-09T23:24:02;1019.2751094268378;;;26.9978515625;68.43904626145064
61740;BME280;47645;45.288;12.038;2023-07-09T23:34:04;1019.1890289806023;;;26.8703125;68.82991903124145
61740;BME280;47645;45.288;12.038;2023-07-09T23:44:06;1019.2189109079776;;;26.758203125;68.83487766862933
61740;BME280;47645;45.288;12.038;2023-07-09T23:54:08;1019.2888854336014;;;26.3962890625;70.74541529451506
